Titusville, FL

7:49 AM EST on December 05, 2016 (GMT -0500)
Spring Valley | | Change Station

Elev 39 ft 28.57 °N, 80.83 °W | Updated 10 seconds ago

Clear
Clear
69.3 °F
Feels Like 69.3 °F
N
0.9
Wind Variable Wind from South
Gusts 2.5 mph

Today
High -- | Low -- °F
--% Chance of Precip.
Yesterday
High -- | Low -- °F
Precip. -- in
Pressure 30.11 in
Visibility 7.0 miles
Clouds Clear
Dew Point 69 °F
Humidity 98%
Rainfall in
Snow Depth Not available.
7:01 AM 5:26 PM
Waxing Crescent, 31% visible
METAR KTIX 051148Z 18005KT 7SM SKC 19/18 A3011 RMK FIRST
Pressure 30.11 in
Visibility 7.0 miles
Clouds Clear
Dew Point 69 °F
Humidity 98%
Rainfall in
Snow Depth Not available.
7:01 AM 5:26 PM
Waxing Crescent, 31% visible
METAR KTIX 051148Z 18005KT 7SM SKC 19/18 A3011 RMK FIRST

10-Day Weather Forecast

Almanac

Astronomy

Dec. 05, 2016 Rise Set
Actual Time
Civil Twilight
Nautical Twilight
Astronomical Twilight
Moon
Length of Visible Light
Length of Day
Tomorrow will be .
, % of the Moon is Illuminated

Today's Extremes

State Highs State Lows

Community

WunderPhotos

Upload Photos

1,955,778 photos uploaded!

WunderBlog® & News

Nearby

Air Quality

  Air Quality AQ Index Pollutant
Not available.

Snow Depth

Station Depth Elevation

Earthquake Activity

City Distance Mag. Time & Date
Minimum magnitude displayed is 2.5.

Coastal Water Temperatures

Place Temperature

Stations

Nearby Weather Stations

Station Location Temp. Windchill Dew Point Humidity Wind Precip. Elev Updated Type
                   

Watches & Warnings

There are currently no watches in effect.